sensor_id;sensor_type;location;lat;lon;timestamp;P1;durP1;ratioP1;P2;durP2;ratioP2
29416;SDS011;28421;51.030;4.006;2022-07-25T00:00:33;3.65;;;2.45;;
29416;SDS011;28421;51.030;4.006;2022-07-25T00:02:59;3.05;;;2.75;;
29416;SDS011;28421;51.030;4.006;2022-07-25T00:05:25;3.47;;;2.85;;
29416;SDS011;28421;51.030;4.006;2022-07-25T00:07:51;5.95;;;2.97;;
29416;SDS011;28421;51.030;4.006;2022-07-25T00:10:17;3.95;;;2.95;;
29416;SDS011;28421;51.030;4.006;2022-07-25T00:12:44;5.00;;;3.15;;
29416;SDS011;28421;51.030;4.006;2022-07-25T00:15:10;5.90;;;2.67;;
29416;SDS011;28421;51.030;4.006;2022-07-25T00:17:36;4.50;;;3.13;;
29416;SDS011;28421;51.030;4.006;2022-07-25T00:20:02;4.95;;;2.63;;
29416;SDS011;28421;51.030;4.006;2022-07-25T00:22:29;2.47;;;2.25;;
29416;SDS011;28421;51.030;4.006;2022-07-25T00:24:55;3.85;;;2.70;;
29416;SDS011;28421;51.030;4.006;2022-07-25T00:27:20;5.57;;;3.70;;
29416;SDS011;28421;51.030;4.006;2022-07-25T00:29:46;4.50;;;2.83;;
29416;SDS011;28421;51.030;4.006;2022-07-25T00:32:12;3.30;;;2.70;;
29416;SDS011;28421;51.030;4.006;2022-07-25T00:34:38;3.75;;;2.45;;
29416;SDS011;28421;51.030;4.006;2022-07-25T00:37:04;6.75;;;3.47;;
29416;SDS011;28421;51.030;4.006;2022-07-25T00:39:31;5.95;;;3.15;;
29416;SDS011;28421;51.030;4.006;2022-07-25T00:41:57;7.13;;;3.38;;
29416;SDS011;28421;51.030;4.006;2022-07-25T00:44:26;4.55;;;3.38;;
29416;SDS011;28421;51.030;4.006;2022-07-25T00:46:53;3.80;;;2.90;;
29416;SDS011;28421;51.030;4.006;2022-07-25T00:49:20;6.88;;;3.63;;
29416;SDS011;28421;51.030;4.006;2022-07-25T00:51:46;4.68;;;3.13;;
29416;SDS011;28421;51.030;4.006;2022-07-25T00:54:12;7.35;;;3.08;;
29416;SDS011;28421;51.030;4.006;2022-07-25T00:56:38;5.47;;;3.05;;
29416;SDS011;28421;51.030;4.006;2022-07-25T00:59:05;3.65;;;2.83;;
29416;SDS011;28421;51.030;4.006;2022-07-25T01:01:30;6.97;;;3.20;;
29416;SDS011;28421;51.030;4.006;2022-07-25T01:03:56;3.17;;;2.88;;
29416;SDS011;28421;51.030;4.006;2022-07-25T01:06:22;4.60;;;2.83;;
29416;SDS011;28421;51.030;4.006;2022-07-25T01:08:48;3.42;;;2.90;;
29416;SDS011;28421;51.030;4.006;2022-07-25T01:11:15;3.85;;;2.83;;
29416;SDS011;28421;51.030;4.006;2022-07-25T01:13:40;4.43;;;2.85;;
29416;SDS011;28421;51.030;4.006;2022-07-25T01:16:07;3.80;;;2.95;;
29416;SDS011;28421;51.030;4.006;2022-07-25T01:18:32;5.05;;;3.40;;
29416;SDS011;28421;51.030;4.006;2022-07-25T01:20:59;4.68;;;3.13;;
29416;SDS011;28421;51.030;4.006;2022-07-25T01:23:25;4.47;;;3.22;;
29416;SDS011;28421;51.030;4.006;2022-07-25T01:25:51;5.25;;;3.33;;
29416;SDS011;28421;51.030;4.006;2022-07-25T01:28:18;11.95;;;3.42;;
29416;SDS011;28421;51.030;4.006;2022-07-25T01:30:44;7.40;;;3.30;;
29416;SDS011;28421;51.030;4.006;2022-07-25T01:33:14;6.63;;;3.55;;
29416;SDS011;28421;51.030;4.006;2022-07-25T01:35:43;4.30;;;3.00;;
29416;SDS011;28421;51.030;4.006;2022-07-25T01:38:10;4.20;;;2.78;;
29416;SDS011;28421;51.030;4.006;2022-07-25T01:40:36;4.85;;;2.90;;
29416;SDS011;28421;51.030;4.006;2022-07-25T01:43:03;3.05;;;2.75;;
29416;SDS011;28421;51.030;4.006;2022-07-25T01:45:29;5.40;;;3.42;;
29416;SDS011;28421;51.030;4.006;2022-07-25T01:47:55;4.00;;;2.95;;
29416;SDS011;28421;51.030;4.006;2022-07-25T01:50:21;4.55;;;3.53;;
29416;SDS011;28421;51.030;4.006;2022-07-25T01:52:47;10.10;;;4.35;;
29416;SDS011;28421;51.030;4.006;2022-07-25T01:55:13;4.55;;;3.03;;
29416;SDS011;28421;51.030;4.006;2022-07-25T01:57:39;4.35;;;3.22;;
29416;SDS011;28421;51.030;4.006;2022-07-25T02:00:06;5.78;;;3.53;;
29416;SDS011;28421;51.030;4.006;2022-07-25T02:02:37;3.97;;;3.20;;
29416;SDS011;28421;51.030;4.006;2022-07-25T02:05:03;4.05;;;3.28;;
29416;SDS011;28421;51.030;4.006;2022-07-25T02:07:29;6.35;;;3.58;;
29416;SDS011;28421;51.030;4.006;2022-07-25T02:09:55;4.05;;;3.35;;
29416;SDS011;28421;51.030;4.006;2022-07-25T02:12:21;4.57;;;2.72;;
29416;SDS011;28421;51.030;4.006;2022-07-25T02:14:47;5.05;;;3.13;;
29416;SDS011;28421;51.030;4.006;2022-07-25T02:17:13;5.82;;;3.05;;
29416;SDS011;28421;51.030;4.006;2022-07-25T02:19:40;6.93;;;3.53;;
29416;SDS011;28421;51.030;4.006;2022-07-25T02:22:06;7.07;;;3.00;;
29416;SDS011;28421;51.030;4.006;2022-07-25T02:24:32;4.45;;;3.38;;
29416;SDS011;28421;51.030;4.006;2022-07-25T02:26:57;3.47;;;2.72;;
29416;SDS011;28421;51.030;4.006;2022-07-25T02:29:23;4.95;;;3.38;;
29416;SDS011;28421;51.030;4.006;2022-07-25T02:31:49;5.50;;;3.42;;
29416;SDS011;28421;51.030;4.006;2022-07-25T02:34:17;5.35;;;3.20;;
29416;SDS011;28421;51.030;4.006;2022-07-25T02:36:42;3.25;;;2.95;;
29416;SDS011;28421;51.030;4.006;2022-07-25T02:39:09;7.97;;;3.92;;
29416;SDS011;28421;51.030;4.006;2022-07-25T02:41:36;5.65;;;3.65;;
29416;SDS011;28421;51.030;4.006;2022-07-25T02:44:02;5.00;;;3.15;;
29416;SDS011;28421;51.030;4.006;2022-07-25T02:46:29;6.53;;;4.03;;
29416;SDS011;28421;51.030;4.006;2022-07-25T02:48:54;8.80;;;4.22;;
29416;SDS011;28421;51.030;4.006;2022-07-25T02:51:20;6.75;;;3.97;;
29416;SDS011;28421;51.030;4.006;2022-07-25T02:53:46;5.47;;;4.15;;
29416;SDS011;28421;51.030;4.006;2022-07-25T02:56:12;4.15;;;3.45;;
29416;SDS011;28421;51.030;4.006;2022-07-25T02:58:39;4.97;;;3.67;;
29416;SDS011;28421;51.030;4.006;2022-07-25T03:01:05;8.50;;;2.97;;
29416;SDS011;28421;51.030;4.006;2022-07-25T03:03:31;6.43;;;3.67;;
29416;SDS011;28421;51.030;4.006;2022-07-25T03:05:57;3.90;;;2.88;;
29416;SDS011;28421;51.030;4.006;2022-07-25T03:08:23;5.32;;;2.67;;
29416;SDS011;28421;51.030;4.006;2022-07-25T03:10:49;4.22;;;3.03;;
29416;SDS011;28421;51.030;4.006;2022-07-25T03:13:15;3.97;;;2.05;;
29416;SDS011;28421;51.030;4.006;2022-07-25T03:15:41;7.20;;;3.40;;
29416;SDS011;28421;51.030;4.006;2022-07-25T03:18:07;3.63;;;2.63;;
29416;SDS011;28421;51.030;4.006;2022-07-25T03:20:33;2.40;;;2.20;;
29416;SDS011;28421;51.030;4.006;2022-07-25T03:22:59;3.17;;;2.55;;
29416;SDS011;28421;51.030;4.006;2022-07-25T03:25:25;4.22;;;2.90;;
29416;SDS011;28421;51.030;4.006;2022-07-25T03:27:51;3.75;;;2.65;;
29416;SDS011;28421;51.030;4.006;2022-07-25T03:30:17;5.80;;;2.92;;
29416;SDS011;28421;51.030;4.006;2022-07-25T03:32:43;3.63;;;2.38;;
29416;SDS011;28421;51.030;4.006;2022-07-25T03:35:09;7.82;;;3.72;;
29416;SDS011;28421;51.030;4.006;2022-07-25T03:37:35;3.85;;;2.58;;
29416;SDS011;28421;51.030;4.006;2022-07-25T03:40:01;3.38;;;2.95;;
29416;SDS011;28421;51.030;4.006;2022-07-25T03:42:27;3.88;;;2.42;;
29416;SDS011;28421;51.030;4.006;2022-07-25T03:44:54;6.85;;;3.15;;
29416;SDS011;28421;51.030;4.006;2022-07-25T03:47:20;3.10;;;2.47;;
29416;SDS011;28421;51.030;4.006;2022-07-25T03:49:46;5.88;;;2.83;;
29416;SDS011;28421;51.030;4.006;2022-07-25T03:52:12;3.53;;;2.22;;
29416;SDS011;28421;51.030;4.006;2022-07-25T03:54:37;4.38;;;3.35;;
29416;SDS011;28421;51.030;4.006;2022-07-25T03:57:03;3.22;;;2.22;;
29416;SDS011;28421;51.030;4.006;2022-07-25T03:59:29;13.27;;;3.33;;
29416;SDS011;28421;51.030;4.006;2022-07-25T04:01:56;2.20;;;1.70;;
29416;SDS011;28421;51.030;4.006;2022-07-25T04:04:22;3.28;;;2.80;;
29416;SDS011;28421;51.030;4.006;2022-07-25T04:06:47;6.45;;;2.47;;
29416;SDS011;28421;51.030;4.006;2022-07-25T04:09:14;6.28;;;2.15;;
29416;SDS011;28421;51.030;4.006;2022-07-25T04:11:40;3.67;;;2.00;;
29416;SDS011;28421;51.030;4.006;2022-07-25T04:14:06;11.70;;;2.95;;
29416;SDS011;28421;51.030;4.006;2022-07-25T04:16:32;4.35;;;2.63;;
29416;SDS011;28421;51.030;4.006;2022-07-25T04:18:58;6.07;;;2.03;;
29416;SDS011;28421;51.030;4.006;2022-07-25T04:21:24;5.82;;;2.63;;
29416;SDS011;28421;51.030;4.006;2022-07-25T04:23:50;4.78;;;2.28;;
29416;SDS011;28421;51.030;4.006;2022-07-25T04:26:16;3.63;;;2.30;;
29416;SDS011;28421;51.030;4.006;2022-07-25T04:28:42;2.10;;;1.60;;
29416;SDS011;28421;51.030;4.006;2022-07-25T04:31:07;3.13;;;1.63;;
29416;SDS011;28421;51.030;4.006;2022-07-25T04:33:36;2.05;;;1.67;;
29416;SDS011;28421;51.030;4.006;2022-07-25T04:36:03;1.77;;;1.42;;
29416;SDS011;28421;51.030;4.006;2022-07-25T04:38:29;2.25;;;1.92;;
29416;SDS011;28421;51.030;4.006;2022-07-25T04:40:55;7.55;;;2.20;;
29416;SDS011;28421;51.030;4.006;2022-07-25T04:43:21;2.50;;;1.42;;
29416;SDS011;28421;51.030;4.006;2022-07-25T04:45:47;3.00;;;1.98;;
29416;SDS011;28421;51.030;4.006;2022-07-25T04:48:13;3.13;;;2.00;;
29416;SDS011;28421;51.030;4.006;2022-07-25T04:50:38;2.90;;;2.35;;
29416;SDS011;28421;51.030;4.006;2022-07-25T04:53:04;4.95;;;2.13;;
29416;SDS011;28421;51.030;4.006;2022-07-25T04:55:31;3.55;;;1.42;;
29416;SDS011;28421;51.030;4.006;2022-07-25T04:57:57;2.83;;;1.27;;
29416;SDS011;28421;51.030;4.006;2022-07-25T05:00:26;3.08;;;1.35;;
29416;SDS011;28421;51.030;4.006;2022-07-25T05:02:52;2.10;;;1.35;;
29416;SDS011;28421;51.030;4.006;2022-07-25T05:05:18;3.35;;;1.40;;
29416;SDS011;28421;51.030;4.006;2022-07-25T05:07:44;3.83;;;1.55;;
29416;SDS011;28421;51.030;4.006;2022-07-25T05:10:10;2.60;;;1.70;;
29416;SDS011;28421;51.030;4.006;2022-07-25T05:12:36;7.13;;;1.35;;
29416;SDS011;28421;51.030;4.006;2022-07-25T05:15:03;2.67;;;1.42;;
29416;SDS011;28421;51.030;4.006;2022-07-25T05:17:29;3.00;;;1.33;;
29416;SDS011;28421;51.030;4.006;2022-07-25T05:19:58;4.43;;;2.92;;
29416;SDS011;28421;51.030;4.006;2022-07-25T05:22:24;4.05;;;1.10;;
29416;SDS011;28421;51.030;4.006;2022-07-25T05:24:50;1.70;;;1.60;;
29416;SDS011;28421;51.030;4.006;2022-07-25T05:27:15;7.28;;;1.67;;
29416;SDS011;28421;51.030;4.006;2022-07-25T05:29:41;1.35;;;1.10;;
29416;SDS011;28421;51.030;4.006;2022-07-25T05:32:07;1.90;;;1.35;;
29416;SDS011;28421;51.030;4.006;2022-07-25T05:34:33;1.38;;;1.20;;
29416;SDS011;28421;51.030;4.006;2022-07-25T05:36:59;2.67;;;1.70;;
29416;SDS011;28421;51.030;4.006;2022-07-25T05:39:25;1.83;;;1.38;;
29416;SDS011;28421;51.030;4.006;2022-07-25T05:41:51;3.17;;;1.75;;
29416;SDS011;28421;51.030;4.006;2022-07-25T05:44:17;5.05;;;1.77;;
29416;SDS011;28421;51.030;4.006;2022-07-25T05:46:43;1.60;;;1.50;;
29416;SDS011;28421;51.030;4.006;2022-07-25T05:49:09;4.03;;;1.30;;
29416;SDS011;28421;51.030;4.006;2022-07-25T05:51:36;2.05;;;1.60;;
29416;SDS011;28421;51.030;4.006;2022-07-25T05:54:02;3.75;;;1.10;;
29416;SDS011;28421;51.030;4.006;2022-07-25T05:56:27;5.57;;;1.10;;
29416;SDS011;28421;51.030;4.006;2022-07-25T05:58:54;2.60;;;1.85;;
29416;SDS011;28421;51.030;4.006;2022-07-25T06:01:20;4.68;;;1.92;;
29416;SDS011;28421;51.030;4.006;2022-07-25T06:03:46;4.20;;;1.58;;
29416;SDS011;28421;51.030;4.006;2022-07-25T06:06:12;1.52;;;1.42;;
29416;SDS011;28421;51.030;4.006;2022-07-25T06:08:38;3.20;;;1.60;;
29416;SDS011;28421;51.030;4.006;2022-07-25T06:11:05;8.18;;;1.52;;
29416;SDS011;28421;51.030;4.006;2022-07-25T06:13:32;2.88;;;1.98;;
29416;SDS011;28421;51.030;4.006;2022-07-25T06:15:58;5.93;;;1.77;;
29416;SDS011;28421;51.030;4.006;2022-07-25T06:18:24;3.65;;;1.45;;
29416;SDS011;28421;51.030;4.006;2022-07-25T06:20:50;3.45;;;1.33;;
29416;SDS011;28421;51.030;4.006;2022-07-25T06:23:17;1.17;;;0.80;;
29416;SDS011;28421;51.030;4.006;2022-07-25T06:25:43;1.45;;;1.33;;
29416;SDS011;28421;51.030;4.006;2022-07-25T06:28:09;5.35;;;1.60;;
29416;SDS011;28421;51.030;4.006;2022-07-25T06:30:35;2.38;;;1.33;;
29416;SDS011;28421;51.030;4.006;2022-07-25T06:33:02;3.67;;;1.50;;
29416;SDS011;28421;51.030;4.006;2022-07-25T06:35:27;4.20;;;1.00;;
29416;SDS011;28421;51.030;4.006;2022-07-25T06:37:53;2.15;;;1.55;;
29416;SDS011;28421;51.030;4.006;2022-07-25T06:40:19;3.55;;;1.55;;
29416;SDS011;28421;51.030;4.006;2022-07-25T06:42:46;5.40;;;1.67;;
29416;SDS011;28421;51.030;4.006;2022-07-25T06:45:12;13.93;;;2.42;;
29416;SDS011;28421;51.030;4.006;2022-07-25T06:47:39;4.05;;;1.80;;
29416;SDS011;28421;51.030;4.006;2022-07-25T06:50:06;2.47;;;2.28;;
29416;SDS011;28421;51.030;4.006;2022-07-25T06:52:33;4.88;;;1.67;;
29416;SDS011;28421;51.030;4.006;2022-07-25T06:54:59;1.60;;;1.50;;
29416;SDS011;28421;51.030;4.006;2022-07-25T06:57:25;2.33;;;1.98;;
29416;SDS011;28421;51.030;4.006;2022-07-25T06:59:51;2.28;;;1.10;;
29416;SDS011;28421;51.030;4.006;2022-07-25T07:02:18;3.67;;;1.55;;
29416;SDS011;28421;51.030;4.006;2022-07-25T07:04:43;1.83;;;1.23;;
29416;SDS011;28421;51.030;4.006;2022-07-25T07:07:09;1.80;;;1.58;;
29416;SDS011;28421;51.030;4.006;2022-07-25T07:09:35;3.60;;;1.42;;
29416;SDS011;28421;51.030;4.006;2022-07-25T07:12:01;8.50;;;1.80;;
29416;SDS011;28421;51.030;4.006;2022-07-25T07:14:28;1.20;;;1.20;;
29416;SDS011;28421;51.030;4.006;2022-07-25T07:16:54;1.58;;;1.20;;
29416;SDS011;28421;51.030;4.006;2022-07-25T07:19:20;1.45;;;1.35;;
29416;SDS011;28421;51.030;4.006;2022-07-25T07:21:45;1.15;;;1.00;;
29416;SDS011;28421;51.030;4.006;2022-07-25T07:24:14;1.65;;;1.52;;
29416;SDS011;28421;51.030;4.006;2022-07-25T07:26:39;5.35;;;1.55;;
29416;SDS011;28421;51.030;4.006;2022-07-25T07:29:05;1.38;;;1.20;;
29416;SDS011;28421;51.030;4.006;2022-07-25T07:31:31;1.73;;;1.48;;
29416;SDS011;28421;51.030;4.006;2022-07-25T07:33:57;1.25;;;1.10;;
29416;SDS011;28421;51.030;4.006;2022-07-25T07:36:23;1.90;;;1.70;;
29416;SDS011;28421;51.030;4.006;2022-07-25T07:38:49;3.55;;;1.30;;
29416;SDS011;28421;51.030;4.006;2022-07-25T07:41:17;4.80;;;1.60;;
29416;SDS011;28421;51.030;4.006;2022-07-25T07:43:43;1.13;;;1.13;;
29416;SDS011;28421;51.030;4.006;2022-07-25T07:46:09;1.63;;;1.35;;
29416;SDS011;28421;51.030;4.006;2022-07-25T07:48:35;4.38;;;1.30;;
29416;SDS011;28421;51.030;4.006;2022-07-25T07:51:02;1.02;;;0.75;;
29416;SDS011;28421;51.030;4.006;2022-07-25T07:53:28;1.25;;;1.15;;
29416;SDS011;28421;51.030;4.006;2022-07-25T07:56:14;2.33;;;1.30;;
29416;SDS011;28421;51.030;4.006;2022-07-25T07:58:40;4.55;;;1.30;;
29416;SDS011;28421;51.030;4.006;2022-07-25T08:01:06;2.55;;;1.13;;
29416;SDS011;28421;51.030;4.006;2022-07-25T08:03:32;1.67;;;1.58;;
29416;SDS011;28421;51.030;4.006;2022-07-25T08:05:59;7.15;;;2.47;;
29416;SDS011;28421;51.030;4.006;2022-07-25T08:08:25;3.00;;;1.35;;
29416;SDS011;28421;51.030;4.006;2022-07-25T08:10:51;2.53;;;1.63;;
29416;SDS011;28421;51.030;4.006;2022-07-25T08:13:18;2.40;;;1.50;;
29416;SDS011;28421;51.030;4.006;2022-07-25T08:15:47;2.50;;;1.58;;
29416;SDS011;28421;51.030;4.006;2022-07-25T08:18:14;2.67;;;1.30;;
29416;SDS011;28421;51.030;4.006;2022-07-25T08:20:40;1.23;;;0.85;;
29416;SDS011;28421;51.030;4.006;2022-07-25T08:23:06;2.70;;;0.93;;
29416;SDS011;28421;51.030;4.006;2022-07-25T08:25:35;3.53;;;0.98;;
29416;SDS011;28421;51.030;4.006;2022-07-25T08:28:01;3.35;;;0.93;;
29416;SDS011;28421;51.030;4.006;2022-07-25T08:30:27;5.45;;;1.17;;
29416;SDS011;28421;51.030;4.006;2022-07-25T08:32:53;2.72;;;1.38;;
29416;SDS011;28421;51.030;4.006;2022-07-25T08:35:22;1.27;;;0.95;;
29416;SDS011;28421;51.030;4.006;2022-07-25T08:37:48;1.33;;;1.23;;
29416;SDS011;28421;51.030;4.006;2022-07-25T08:40:16;2.58;;;1.02;;
29416;SDS011;28421;51.030;4.006;2022-07-25T08:42:45;1.20;;;0.90;;
29416;SDS011;28421;51.030;4.006;2022-07-25T08:45:12;1.23;;;1.10;;
29416;SDS011;28421;51.030;4.006;2022-07-25T08:47:40;1.02;;;0.93;;
29416;SDS011;28421;51.030;4.006;2022-07-25T08:50:07;2.22;;;1.08;;
29416;SDS011;28421;51.030;4.006;2022-07-25T08:52:36;2.13;;;1.42;;
29416;SDS011;28421;51.030;4.006;2022-07-25T08:55:06;1.45;;;0.63;;
29416;SDS011;28421;51.030;4.006;2022-07-25T08:57:39;5.78;;;1.10;;
29416;SDS011;28421;51.030;4.006;2022-07-25T09:00:07;1.90;;;1.20;;
29416;SDS011;28421;51.030;4.006;2022-07-25T09:02:35;2.63;;;0.85;;
29416;SDS011;28421;51.030;4.006;2022-07-25T09:05:01;4.28;;;1.40;;
29416;SDS011;28421;51.030;4.006;2022-07-25T09:07:28;3.72;;;0.80;;
29416;SDS011;28421;51.030;4.006;2022-07-25T09:09:54;3.17;;;1.58;;
29416;SDS011;28421;51.030;4.006;2022-07-25T09:12:24;3.25;;;1.08;;
29416;SDS011;28421;51.030;4.006;2022-07-25T09:14:51;2.75;;;2.03;;
29416;SDS011;28421;51.030;4.006;2022-07-25T09:17:17;0.85;;;0.82;;
29416;SDS011;28421;51.030;4.006;2022-07-25T09:19:53;4.72;;;0.80;;
29416;SDS011;28421;51.030;4.006;2022-07-25T09:22:20;2.05;;;1.30;;
29416;SDS011;28421;51.030;4.006;2022-07-25T09:24:46;1.67;;;0.93;;
29416;SDS011;28421;51.030;4.006;2022-07-25T09:27:13;6.60;;;1.13;;
29416;SDS011;28421;51.030;4.006;2022-07-25T09:29:39;1.17;;;0.80;;
29416;SDS011;28421;51.030;4.006;2022-07-25T09:32:19;5.40;;;2.45;;
29416;SDS011;28421;51.030;4.006;2022-07-25T09:34:46;6.70;;;0.75;;
29416;SDS011;28421;51.030;4.006;2022-07-25T09:37:14;2.28;;;0.80;;
29416;SDS011;28421;51.030;4.006;2022-07-25T09:39:50;1.88;;;0.90;;
29416;SDS011;28421;51.030;4.006;2022-07-25T09:47:32;1.40;;;1.08;;
29416;SDS011;28421;51.030;4.006;2022-07-25T09:50:00;1.35;;;1.02;;
29416;SDS011;28421;51.030;4.006;2022-07-25T09:52:26;1.52;;;1.23;;
29416;SDS011;28421;51.030;4.006;2022-07-25T09:54:52;3.88;;;2.63;;
29416;SDS011;28421;51.030;4.006;2022-07-25T09:57:19;3.00;;;1.05;;
29416;SDS011;28421;51.030;4.006;2022-07-25T09:59:47;1.23;;;0.90;;
29416;SDS011;28421;51.030;4.006;2022-07-25T10:02:29;6.28;;;1.15;;
29416;SDS011;28421;51.030;4.006;2022-07-25T10:05:14;3.97;;;1.60;;
29416;SDS011;28421;51.030;4.006;2022-07-25T10:07:45;5.28;;;1.00;;
29416;SDS011;28421;51.030;4.006;2022-07-25T10:10:20;1.00;;;1.00;;
29416;SDS011;28421;51.030;4.006;2022-07-25T10:13:05;1.33;;;1.05;;
29416;SDS011;28421;51.030;4.006;2022-07-25T10:18:09;11.60;;;2.30;;
29416;SDS011;28421;51.030;4.006;2022-07-25T10:20:35;4.45;;;1.70;;
29416;SDS011;28421;51.030;4.006;2022-07-25T10:23:02;4.75;;;0.75;;
29416;SDS011;28421;51.030;4.006;2022-07-25T10:25:29;1.63;;;0.88;;
29416;SDS011;28421;51.030;4.006;2022-07-25T10:27:59;2.88;;;1.55;;
29416;SDS011;28421;51.030;4.006;2022-07-25T10:30:33;1.63;;;0.98;;
29416;SDS011;28421;51.030;4.006;2022-07-25T10:35:27;5.03;;;1.48;;
29416;SDS011;28421;51.030;4.006;2022-07-25T10:37:54;4.93;;;1.63;;
29416;SDS011;28421;51.030;4.006;2022-07-25T10:43:01;2.70;;;1.17;;
29416;SDS011;28421;51.030;4.006;2022-07-25T10:45:47;9.80;;;1.30;;
29416;SDS011;28421;51.030;4.006;2022-07-25T10:51:12;1.38;;;0.80;;
29416;SDS011;28421;51.030;4.006;2022-07-25T10:53:42;5.28;;;1.45;;
29416;SDS011;28421;51.030;4.006;2022-07-25T10:56:15;1.50;;;1.25;;
29416;SDS011;28421;51.030;4.006;2022-07-25T11:01:24;6.38;;;1.30;;
29416;SDS011;28421;51.030;4.006;2022-07-25T11:03:51;0.75;;;0.47;;
29416;SDS011;28421;51.030;4.006;2022-07-25T11:08:55;3.50;;;1.00;;
29416;SDS011;28421;51.030;4.006;2022-07-25T11:14:03;1.42;;;0.80;;
29416;SDS011;28421;51.030;4.006;2022-07-25T11:16:30;2.75;;;1.02;;
29416;SDS011;28421;51.030;4.006;2022-07-25T11:18:55;4.65;;;1.65;;
29416;SDS011;28421;51.030;4.006;2022-07-25T11:21:21;1.65;;;1.30;;
29416;SDS011;28421;51.030;4.006;2022-07-25T11:23:50;2.80;;;1.05;;
29416;SDS011;28421;51.030;4.006;2022-07-25T11:26:16;2.95;;;0.93;;
29416;SDS011;28421;51.030;4.006;2022-07-25T11:28:43;2.97;;;1.20;;
29416;SDS011;28421;51.030;4.006;2022-07-25T11:31:11;3.97;;;1.13;;
29416;SDS011;28421;51.030;4.006;2022-07-25T11:33:39;3.80;;;1.38;;
29416;SDS011;28421;51.030;4.006;2022-07-25T11:36:06;5.38;;;1.10;;
29416;SDS011;28421;51.030;4.006;2022-07-25T11:38:35;1.23;;;0.80;;
29416;SDS011;28421;51.030;4.006;2022-07-25T11:41:02;2.17;;;0.98;;
29416;SDS011;28421;51.030;4.006;2022-07-25T11:43:27;3.13;;;0.88;;
29416;SDS011;28421;51.030;4.006;2022-07-25T11:46:01;3.03;;;1.40;;
29416;SDS011;28421;51.030;4.006;2022-07-25T11:48:35;4.07;;;1.50;;
29416;SDS011;28421;51.030;4.006;2022-07-25T11:51:10;0.88;;;0.70;;
29416;SDS011;28421;51.030;4.006;2022-07-25T11:53:38;1.33;;;1.00;;
29416;SDS011;28421;51.030;4.006;2022-07-25T11:56:10;2.47;;;0.80;;
29416;SDS011;28421;51.030;4.006;2022-07-25T11:58:48;2.28;;;1.20;;
29416;SDS011;28421;51.030;4.006;2022-07-25T12:01:22;2.63;;;1.10;;
29416;SDS011;28421;51.030;4.006;2022-07-25T12:03:48;3.60;;;1.17;;
29416;SDS011;28421;51.030;4.006;2022-07-25T12:06:14;5.15;;;0.90;;
29416;SDS011;28421;51.030;4.006;2022-07-25T12:08:40;3.70;;;0.63;;
29416;SDS011;28421;51.030;4.006;2022-07-25T12:11:20;2.83;;;0.80;;
29416;SDS011;28421;51.030;4.006;2022-07-25T12:13:47;3.75;;;0.98;;
29416;SDS011;28421;51.030;4.006;2022-07-25T12:16:14;0.57;;;0.57;;
29416;SDS011;28421;51.030;4.006;2022-07-25T12:18:40;1.13;;;0.88;;
29416;SDS011;28421;51.030;4.006;2022-07-25T12:21:06;3.95;;;0.88;;
29416;SDS011;28421;51.030;4.006;2022-07-25T12:23:32;1.52;;;0.65;;
29416;SDS011;28421;51.030;4.006;2022-07-25T12:25:58;2.47;;;0.75;;
29416;SDS011;28421;51.030;4.006;2022-07-25T12:28:24;5.53;;;1.05;;
29416;SDS011;28421;51.030;4.006;2022-07-25T12:30:52;2.22;;;0.68;;
29416;SDS011;28421;51.030;4.006;2022-07-25T12:33:18;4.18;;;1.35;;
29416;SDS011;28421;51.030;4.006;2022-07-25T12:35:43;3.25;;;0.95;;
29416;SDS011;28421;51.030;4.006;2022-07-25T12:38:09;7.97;;;1.02;;
29416;SDS011;28421;51.030;4.006;2022-07-25T12:40:35;3.92;;;0.98;;
29416;SDS011;28421;51.030;4.006;2022-07-25T12:43:02;1.90;;;0.50;;
29416;SDS011;28421;51.030;4.006;2022-07-25T12:45:29;5.15;;;0.70;;
29416;SDS011;28421;51.030;4.006;2022-07-25T12:47:54;6.00;;;0.80;;
29416;SDS011;28421;51.030;4.006;2022-07-25T12:50:20;3.42;;;0.90;;
29416;SDS011;28421;51.030;4.006;2022-07-25T12:52:49;0.75;;;0.73;;
29416;SDS011;28421;51.030;4.006;2022-07-25T12:55:16;5.93;;;1.27;;
29416;SDS011;28421;51.030;4.006;2022-07-25T12:57:43;2.50;;;1.00;;
29416;SDS011;28421;51.030;4.006;2022-07-25T13:00:11;2.53;;;0.65;;
29416;SDS011;28421;51.030;4.006;2022-07-25T13:02:38;1.00;;;0.45;;
29416;SDS011;28421;51.030;4.006;2022-07-25T13:05:04;5.40;;;0.82;;
29416;SDS011;28421;51.030;4.006;2022-07-25T13:07:31;1.10;;;0.80;;
29416;SDS011;28421;51.030;4.006;2022-07-25T13:09:58;2.92;;;0.35;;
29416;SDS011;28421;51.030;4.006;2022-07-25T13:12:24;2.75;;;0.70;;
29416;SDS011;28421;51.030;4.006;2022-07-25T13:14:50;2.92;;;0.50;;
29416;SDS011;28421;51.030;4.006;2022-07-25T13:17:16;0.63;;;0.50;;
29416;SDS011;28421;51.030;4.006;2022-07-25T13:19:42;1.77;;;1.13;;
29416;SDS011;28421;51.030;4.006;2022-07-25T13:22:08;2.95;;;0.85;;
29416;SDS011;28421;51.030;4.006;2022-07-25T13:24:34;3.42;;;0.75;;
29416;SDS011;28421;51.030;4.006;2022-07-25T13:27:05;2.47;;;0.85;;
29416;SDS011;28421;51.030;4.006;2022-07-25T13:29:32;6.63;;;0.60;;
29416;SDS011;28421;51.030;4.006;2022-07-25T13:31:58;1.38;;;1.27;;
29416;SDS011;28421;51.030;4.006;2022-07-25T13:34:24;1.80;;;0.57;;
29416;SDS011;28421;51.030;4.006;2022-07-25T13:36:50;2.15;;;0.63;;
29416;SDS011;28421;51.030;4.006;2022-07-25T13:39:16;0.35;;;0.35;;
29416;SDS011;28421;51.030;4.006;2022-07-25T13:41:42;3.10;;;0.75;;
29416;SDS011;28421;51.030;4.006;2022-07-25T13:44:08;4.85;;;0.73;;
29416;SDS011;28421;51.030;4.006;2022-07-25T13:46:34;3.47;;;0.82;;
29416;SDS011;28421;51.030;4.006;2022-07-25T13:49:00;0.45;;;0.30;;
29416;SDS011;28421;51.030;4.006;2022-07-25T13:51:26;0.82;;;0.43;;
29416;SDS011;28421;51.030;4.006;2022-07-25T13:53:53;0.25;;;0.25;;
29416;SDS011;28421;51.030;4.006;2022-07-25T13:56:19;1.75;;;0.65;;
29416;SDS011;28421;51.030;4.006;2022-07-25T13:58:45;2.53;;;0.60;;
29416;SDS011;28421;51.030;4.006;2022-07-25T14:01:11;2.65;;;0.70;;
29416;SDS011;28421;51.030;4.006;2022-07-25T14:03:37;0.63;;;0.63;;
29416;SDS011;28421;51.030;4.006;2022-07-25T14:06:04;1.17;;;0.75;;
29416;SDS011;28421;51.030;4.006;2022-07-25T14:08:32;0.20;;;0.20;;
29416;SDS011;28421;51.030;4.006;2022-07-25T14:10:58;2.13;;;0.75;;
29416;SDS011;28421;51.030;4.006;2022-07-25T14:13:24;0.60;;;0.38;;
29416;SDS011;28421;51.030;4.006;2022-07-25T14:15:51;1.02;;;0.50;;
29416;SDS011;28421;51.030;4.006;2022-07-25T14:18:16;1.23;;;0.93;;
29416;SDS011;28421;51.030;4.006;2022-07-25T14:20:42;0.40;;;0.40;;
29416;SDS011;28421;51.030;4.006;2022-07-25T14:23:08;0.43;;;0.30;;
29416;SDS011;28421;51.030;4.006;2022-07-25T14:25:34;1.33;;;0.50;;
29416;SDS011;28421;51.030;4.006;2022-07-25T14:28:00;2.45;;;0.52;;
29416;SDS011;28421;51.030;4.006;2022-07-25T14:30:26;0.50;;;0.40;;
29416;SDS011;28421;51.030;4.006;2022-07-25T14:32:51;0.88;;;0.40;;
29416;SDS011;28421;51.030;4.006;2022-07-25T14:35:17;0.75;;;0.55;;
29416;SDS011;28421;51.030;4.006;2022-07-25T14:37:44;1.65;;;0.50;;
29416;SDS011;28421;51.030;4.006;2022-07-25T14:40:11;2.65;;;0.55;;
29416;SDS011;28421;51.030;4.006;2022-07-25T14:42:38;1.27;;;0.30;;
29416;SDS011;28421;51.030;4.006;2022-07-25T14:45:06;1.35;;;0.30;;
29416;SDS011;28421;51.030;4.006;2022-07-25T14:47:32;0.10;;;0.10;;
29416;SDS011;28421;51.030;4.006;2022-07-25T14:49:58;2.17;;;0.55;;
29416;SDS011;28421;51.030;4.006;2022-07-25T14:52:24;0.88;;;0.40;;
29416;SDS011;28421;51.030;4.006;2022-07-25T14:54:50;1.67;;;0.60;;
29416;SDS011;28421;51.030;4.006;2022-07-25T14:57:16;0.52;;;0.28;;
29416;SDS011;28421;51.030;4.006;2022-07-25T14:59:42;1.10;;;0.82;;
29416;SDS011;28421;51.030;4.006;2022-07-25T15:02:07;0.63;;;0.30;;
29416;SDS011;28421;51.030;4.006;2022-07-25T15:04:35;0.50;;;0.50;;
29416;SDS011;28421;51.030;4.006;2022-07-25T15:07:01;0.10;;;0.10;;
29416;SDS011;28421;51.030;4.006;2022-07-25T15:09:27;2.17;;;0.57;;